LiveATC.Net - Listen to live air traffic control over the Internet!


ICAO: KFKA  IATA: FKA   Airport: Fillmore County Airport
City: Preston   State/Province: Minnesota
Country: United States   Continent: North America
KFKA METAR Weather: KFKA 222315Z AUTO 17006KT 10SM CLR 16/07 A3014 RMK AO2 T01640070
KFKA Flight Activity (FlightAware)
KFKA Airport Info   (AirNav) (iFlightPlanner)
KFKA VFR Sectional Chart   (iFlightPlanner) 
KFKA IFR Low Chart   (iFlightPlanner) 

KFKA CTAF
Feed Status: UP   Listeners: 0
Listen right in your browser - requires Flash (in browser, requires Flash)
Click here to listen with your own player (launches your MP3 player)
KFKA CTAF Audio Archives
FacilityFrequency
Preston CTAF122.900

NOTICE

Unauthorized use prohibited. See LiveATC.net Terms of Service


Find LiveATC Audio Streams


Airport/ARTCC Code

Frequency Search
(e.g., 124.400, 128.75)
Site-wide search
 


Browse LiveATC Feeds
Top 50 LiveATC Feeds
Bad Weather Areas

LiveATC FAQ
Offer a LiveATC Feed
Contact LiveATC.net
Press Inquiries

LiveATC on iPhone
LiveATC on Android

Windows Phone
Windows 8/10

LiveATC Mobile
(Mobile browser)

ATC Audio Archives
Interesting Recordings

LiveATC Forums


Home Page
About LiveATC.net
Make a Donation
Terms of Use
Privacy Policy

Canadian Air Freqs

AIRMETs/SIGMETs

FAA Airport Status
Nat'l Airspace Status
Arrival Demand Charts


Server Software By:
Icecast.org
Liquidsoap